sensor_id;sensor_type;location;lat;lon;timestamp;pressure;altitude;pressure_sealevel;temperature;humidity
8075;BME280;4080;42.676;23.372;2023-01-26T00:02:26;95562.03;;;0.45;100.00
8075;BME280;4080;42.676;23.372;2023-01-26T00:04:53;95565.03;;;0.42;100.00
8075;BME280;4080;42.676;23.372;2023-01-26T00:07:19;95557.81;;;0.37;100.00
8075;BME280;4080;42.676;23.372;2023-01-26T00:09:48;95564.00;;;0.36;100.00
8075;BME280;4080;42.676;23.372;2023-01-26T00:12:14;95564.22;;;0.41;100.00
8075;BME280;4080;42.676;23.372;2023-01-26T00:14:41;95497.38;;;0.09;100.00
8075;BME280;4080;42.676;23.372;2023-01-26T00:17:18;95553.66;;;0.43;100.00
8075;BME280;4080;42.676;23.372;2023-01-26T00:19:54;95555.63;;;0.41;100.00
8075;BME280;4080;42.676;23.372;2023-01-26T00:22:22;95574.03;;;0.46;100.00
8075;BME280;4080;42.676;23.372;2023-01-26T00:24:51;95566.84;;;0.48;100.00
8075;BME280;4080;42.676;23.372;2023-01-26T00:27:17;95568.44;;;0.49;100.00
8075;BME280;4080;42.676;23.372;2023-01-26T00:29:44;95571.03;;;0.49;100.00
8075;BME280;4080;42.676;23.372;2023-01-26T00:32:11;95558.84;;;0.43;100.00
8075;BME280;4080;42.676;23.372;2023-01-26T00:34:37;95547.31;;;0.52;100.00
8075;BME280;4080;42.676;23.372;2023-01-26T00:37:04;95530.72;;;0.53;100.00
8075;BME280;4080;42.676;23.372;2023-01-26T00:39:31;95537.53;;;0.54;100.00
8075;BME280;4080;42.676;23.372;2023-01-26T00:41:59;95532.13;;;0.49;100.00
8075;BME280;4080;42.676;23.372;2023-01-26T00:44:39;95533.31;;;0.53;100.00
8075;BME280;4080;42.676;23.372;2023-01-26T00:47:08;95534.50;;;0.50;100.00
8075;BME280;4080;42.676;23.372;2023-01-26T00:49:35;95535.91;;;0.53;100.00
8075;BME280;4080;42.676;23.372;2023-01-26T00:52:03;95531.53;;;0.53;100.00
8075;BME280;4080;42.676;23.372;2023-01-26T00:54:30;95533.31;;;0.53;100.00
8075;BME280;4080;42.676;23.372;2023-01-26T00:56:57;95488.47;;;0.24;100.00
8075;BME280;4080;42.676;23.372;2023-01-26T00:59:25;95525.50;;;0.46;100.00
8075;BME280;4080;42.676;23.372;2023-01-26T01:01:52;95478.47;;;0.21;100.00
8075;BME280;4080;42.676;23.372;2023-01-26T01:04:19;95524.50;;;0.47;100.00
8075;BME280;4080;42.676;23.372;2023-01-26T01:06:45;95513.72;;;0.44;100.00
8075;BME280;4080;42.676;23.372;2023-01-26T01:09:12;95507.31;;;0.40;100.00
8075;BME280;4080;42.676;23.372;2023-01-26T01:11:39;95509.75;;;0.48;100.00
8075;BME280;4080;42.676;23.372;2023-01-26T01:14:07;95513.94;;;0.49;100.00
8075;BME280;4080;42.676;23.372;2023-01-26T01:16:35;95510.53;;;0.48;100.00
8075;BME280;4080;42.676;23.372;2023-01-26T01:19:02;95514.56;;;0.51;100.00
8075;BME280;4080;42.676;23.372;2023-01-26T01:21:29;95505.53;;;0.47;100.00
8075;BME280;4080;42.676;23.372;2023-01-26T01:23:56;95506.59;;;0.59;100.00
8075;BME280;4080;42.676;23.372;2023-01-26T01:26:23;95509.56;;;0.56;100.00
8075;BME280;4080;42.676;23.372;2023-01-26T01:28:52;95507.53;;;0.45;100.00
8075;BME280;4080;42.676;23.372;2023-01-26T01:31:20;95497.72;;;0.34;100.00
8075;BME280;4080;42.676;23.372;2023-01-26T01:33:48;95499.75;;;0.45;100.00
8075;BME280;4080;42.676;23.372;2023-01-26T01:36:15;95463.09;;;0.20;100.00
8075;BME280;4080;42.676;23.372;2023-01-26T01:38:43;95506.16;;;0.49;100.00
8075;BME280;4080;42.676;23.372;2023-01-26T01:41:11;95501.38;;;0.52;100.00
8075;BME280;4080;42.676;23.372;2023-01-26T01:43:38;95496.78;;;0.48;100.00
8075;BME280;4080;42.676;23.372;2023-01-26T01:46:08;95501.75;;;0.43;100.00
8075;BME280;4080;42.676;23.372;2023-01-26T01:48:44;95468.03;;;0.08;100.00
8075;BME280;4080;42.676;23.372;2023-01-26T01:51:18;95497.53;;;0.35;100.00
8075;BME280;4080;42.676;23.372;2023-01-26T01:53:49;95501.72;;;0.36;100.00
8075;BME280;4080;42.676;23.372;2023-01-26T01:56:20;95495.31;;;0.32;100.00
8075;BME280;4080;42.676;23.372;2023-01-26T01:58:51;95496.72;;;0.35;100.00
8075;BME280;4080;42.676;23.372;2023-01-26T02:01:19;95494.91;;;0.35;100.00
8075;BME280;4080;42.676;23.372;2023-01-26T02:03:49;95490.53;;;0.36;100.00
8075;BME280;4080;42.676;23.372;2023-01-26T02:06:21;95496.91;;;0.33;100.00
8075;BME280;4080;42.676;23.372;2023-01-26T02:08:50;95468.47;;;0.18;100.00
8075;BME280;4080;42.676;23.372;2023-01-26T02:11:20;95475.09;;;0.27;100.00
8075;BME280;4080;42.676;23.372;2023-01-26T02:13:49;95478.88;;;0.25;100.00
8075;BME280;4080;42.676;23.372;2023-01-26T02:16:17;95466.72;;;0.25;100.00
8075;BME280;4080;42.676;23.372;2023-01-26T02:18:44;95462.91;;;0.21;100.00
8075;BME280;4080;42.676;23.372;2023-01-26T02:21:14;95454.91;;;0.23;100.00
8075;BME280;4080;42.676;23.372;2023-01-26T02:23:50;95458.13;;;0.25;100.00
8075;BME280;4080;42.676;23.372;2023-01-26T02:26:23;95443.34;;;0.25;100.00
8075;BME280;4080;42.676;23.372;2023-01-26T02:28:52;95441.63;;;0.33;100.00
8075;BME280;4080;42.676;23.372;2023-01-26T02:31:19;95446.81;;;0.33;100.00
8075;BME280;4080;42.676;23.372;2023-01-26T02:33:47;95442.81;;;0.37;100.00
8075;BME280;4080;42.676;23.372;2023-01-26T02:36:18;95433.44;;;0.36;100.00
8075;BME280;4080;42.676;23.372;2023-01-26T02:38:50;95435.44;;;0.34;100.00
8075;BME280;4080;42.676;23.372;2023-01-26T02:41:18;95434.16;;;0.23;100.00
8075;BME280;4080;42.676;23.372;2023-01-26T02:44:01;95430.56;;;0.17;100.00
8075;BME280;4080;42.676;23.372;2023-01-26T02:46:29;95432.16;;;0.18;100.00
8075;BME280;4080;42.676;23.372;2023-01-26T02:48:56;95436.34;;;0.19;100.00
8075;BME280;4080;42.676;23.372;2023-01-26T02:51:40;95432.34;;;0.17;100.00
8075;BME280;4080;42.676;23.372;2023-01-26T02:54:07;95417.97;;;0.14;100.00
8075;BME280;4080;42.676;23.372;2023-01-26T02:56:34;95432.75;;;0.14;100.00
8075;BME280;4080;42.676;23.372;2023-01-26T02:59:05;95415.56;;;0.13;100.00
8075;BME280;4080;42.676;23.372;2023-01-26T03:01:32;95415.78;;;0.11;100.00
8075;BME280;4080;42.676;23.372;2023-01-26T03:03:58;95408.03;;;0.24;100.00
8075;BME280;4080;42.676;23.372;2023-01-26T03:06:25;95401.47;;;0.28;100.00
8075;BME280;4080;42.676;23.372;2023-01-26T03:08:52;95398.66;;;0.23;100.00
8075;BME280;4080;42.676;23.372;2023-01-26T03:11:18;95403.00;;;0.16;100.00
8075;BME280;4080;42.676;23.372;2023-01-26T03:13:45;95410.97;;;0.08;100.00
8075;BME280;4080;42.676;23.372;2023-01-26T03:16:13;95406.19;;;0.12;100.00
8075;BME280;4080;42.676;23.372;2023-01-26T03:18:42;95396.41;;;0.07;100.00
8075;BME280;4080;42.676;23.372;2023-01-26T03:21:27;95400.38;;;0.03;100.00
8075;BME280;4080;42.676;23.372;2023-01-26T03:24:11;95387.41;;;0.03;100.00
8075;BME280;4080;42.676;23.372;2023-01-26T03:26:56;95379.81;;;0.02;100.00
8075;BME280;4080;42.676;23.372;2023-01-26T03:29:40;95378.56;;;-0.03;100.00
8075;BME280;4080;42.676;23.372;2023-01-26T03:32:08;95378.78;;;-0.04;100.00
8075;BME280;4080;42.676;23.372;2023-01-26T03:34:34;95377.41;;;0.00;100.00
8075;BME280;4080;42.676;23.372;2023-01-26T03:37:01;95371.25;;;0.01;100.00
8075;BME280;4080;42.676;23.372;2023-01-26T03:39:28;95378.22;;;0.01;100.00
8075;BME280;4080;42.676;23.372;2023-01-26T03:42:12;95376.97;;;-0.04;100.00
8075;BME280;4080;42.676;23.372;2023-01-26T03:44:56;95371.00;;;-0.04;100.00
8075;BME280;4080;42.676;23.372;2023-01-26T03:47:42;95314.59;;;-0.37;100.00
8075;BME280;4080;42.676;23.372;2023-01-26T03:50:26;95356.03;;;-0.02;100.00
8075;BME280;4080;42.676;23.372;2023-01-26T03:53:15;95339.16;;;-0.33;100.00
8075;BME280;4080;42.676;23.372;2023-01-26T03:55:59;95358.19;;;-0.12;100.00
8075;BME280;4080;42.676;23.372;2023-01-26T03:58:47;95178.84;;;-1.25;100.00
8075;BME280;4080;42.676;23.372;2023-01-26T04:01:14;95352.78;;;-0.17;100.00
8075;BME280;4080;42.676;23.372;2023-01-26T04:03:48;95335.06;;;-0.14;100.00
8075;BME280;4080;42.676;23.372;2023-01-26T04:06:33;95336.88;;;-0.08;100.00
8075;BME280;4080;42.676;23.372;2023-01-26T04:09:18;95330.00;;;-0.28;100.00
8075;BME280;4080;42.676;23.372;2023-01-26T04:11:45;95334.66;;;-0.11;100.00
8075;BME280;4080;42.676;23.372;2023-01-26T04:14:12;95351.03;;;-0.10;100.00
8075;BME280;4080;42.676;23.372;2023-01-26T04:16:58;95306.50;;;-0.27;100.00
8075;BME280;4080;42.676;23.372;2023-01-26T04:19:44;95334.28;;;-0.08;100.00
8075;BME280;4080;42.676;23.372;2023-01-26T04:22:28;95324.91;;;-0.09;100.00
8075;BME280;4080;42.676;23.372;2023-01-26T04:24:55;95316.94;;;-0.07;100.00
8075;BME280;4080;42.676;23.372;2023-01-26T04:27:22;95309.94;;;-0.07;100.00
8075;BME280;4080;42.676;23.372;2023-01-26T04:29:49;95303.56;;;-0.04;100.00
8075;BME280;4080;42.676;23.372;2023-01-26T04:32:16;95310.00;;;0.00;100.00
8075;BME280;4080;42.676;23.372;2023-01-26T04:34:44;95309.59;;;0.03;100.00
8075;BME280;4080;42.676;23.372;2023-01-26T04:37:10;95305.16;;;-0.03;100.00
8075;BME280;4080;42.676;23.372;2023-01-26T04:39:37;95314.78;;;0.03;100.00
8075;BME280;4080;42.676;23.372;2023-01-26T04:42:04;95310.56;;;-0.05;100.00
8075;BME280;4080;42.676;23.372;2023-01-26T04:44:31;95286.78;;;-0.15;100.00
8075;BME280;4080;42.676;23.372;2023-01-26T04:46:57;95315.19;;;0.00;100.00
8075;BME280;4080;42.676;23.372;2023-01-26T04:49:24;95320.31;;;-0.07;100.00
8075;BME280;4080;42.676;23.372;2023-01-26T04:51:52;95293.97;;;-0.10;100.00
8075;BME280;4080;42.676;23.372;2023-01-26T04:54:19;95312.72;;;-0.08;100.00
8075;BME280;4080;42.676;23.372;2023-01-26T04:56:45;95317.78;;;0.00;100.00
8075;BME280;4080;42.676;23.372;2023-01-26T04:59:12;95316.72;;;-0.06;100.00
8075;BME280;4080;42.676;23.372;2023-01-26T05:01:39;95306.16;;;-0.04;100.00
8075;BME280;4080;42.676;23.372;2023-01-26T05:04:06;95316.00;;;0.07;100.00
8075;BME280;4080;42.676;23.372;2023-01-26T05:06:33;95327.56;;;0.11;100.00
8075;BME280;4080;42.676;23.372;2023-01-26T05:09:02;95312.41;;;0.15;100.00
8075;BME280;4080;42.676;23.372;2023-01-26T05:11:29;95257.06;;;-0.19;100.00
8075;BME280;4080;42.676;23.372;2023-01-26T05:13:56;95305.25;;;0.17;100.00
8075;BME280;4080;42.676;23.372;2023-01-26T05:16:23;95292.06;;;0.05;100.00
8075;BME280;4080;42.676;23.372;2023-01-26T05:18:49;95260.28;;;-0.10;100.00
8075;BME280;4080;42.676;23.372;2023-01-26T05:21:16;95303.47;;;0.24;100.00
8075;BME280;4080;42.676;23.372;2023-01-26T05:23:43;95310.44;;;0.23;100.00
8075;BME280;4080;42.676;23.372;2023-01-26T05:26:11;95303.66;;;0.22;100.00
8075;BME280;4080;42.676;23.372;2023-01-26T05:28:37;95292.69;;;0.27;100.00
8075;BME280;4080;42.676;23.372;2023-01-26T05:31:04;95289.28;;;0.26;100.00
8075;BME280;4080;42.676;23.372;2023-01-26T05:33:31;95287.91;;;0.30;100.00
8075;BME280;4080;42.676;23.372;2023-01-26T05:36:03;95286.50;;;0.21;100.00
8075;BME280;4080;42.676;23.372;2023-01-26T05:38:30;95290.50;;;0.30;100.00
8075;BME280;4080;42.676;23.372;2023-01-26T05:40:57;95292.91;;;0.32;100.00
8075;BME280;4080;42.676;23.372;2023-01-26T05:43:25;95289.69;;;0.30;100.00
8075;BME280;4080;42.676;23.372;2023-01-26T05:45:51;95284.50;;;0.30;100.00
8075;BME280;4080;42.676;23.372;2023-01-26T05:48:18;95288.53;;;0.33;100.00
8075;BME280;4080;42.676;23.372;2023-01-26T05:50:45;95279.50;;;0.28;100.00
8075;BME280;4080;42.676;23.372;2023-01-26T05:53:11;95259.75;;;0.14;100.00
8075;BME280;4080;42.676;23.372;2023-01-26T05:55:39;95287.34;;;0.35;100.00
8075;BME280;4080;42.676;23.372;2023-01-26T05:58:06;95305.69;;;0.40;100.00
8075;BME280;4080;42.676;23.372;2023-01-26T06:00:34;95298.72;;;0.41;100.00
8075;BME280;4080;42.676;23.372;2023-01-26T06:03:00;95290.72;;;0.42;100.00
8075;BME280;4080;42.676;23.372;2023-01-26T06:05:27;95293.94;;;0.44;100.00
8075;BME280;4080;42.676;23.372;2023-01-26T06:07:54;95278.31;;;0.24;100.00
8075;BME280;4080;42.676;23.372;2023-01-26T06:10:20;95290.72;;;0.36;100.00
8075;BME280;4080;42.676;23.372;2023-01-26T06:12:47;95306.50;;;0.41;100.00
8075;BME280;4080;42.676;23.372;2023-01-26T06:15:14;95293.94;;;0.44;100.00
8075;BME280;4080;42.676;23.372;2023-01-26T06:17:42;95274.75;;;0.32;100.00
8075;BME280;4080;42.676;23.372;2023-01-26T06:20:09;95284.53;;;0.43;100.00
8075;BME280;4080;42.676;23.372;2023-01-26T06:22:36;95288.53;;;0.46;100.00
8075;BME280;4080;42.676;23.372;2023-01-26T06:25:03;95280.75;;;0.39;100.00
8075;BME280;4080;42.676;23.372;2023-01-26T06:27:30;95284.53;;;0.50;100.00
8075;BME280;4080;42.676;23.372;2023-01-26T06:29:58;95278.97;;;0.53;100.00
8075;BME280;4080;42.676;23.372;2023-01-26T06:32:25;95266.78;;;0.60;100.00
8075;BME280;4080;42.676;23.372;2023-01-26T06:34:53;95277.16;;;0.60;100.00
8075;BME280;4080;42.676;23.372;2023-01-26T06:37:20;95266.78;;;0.60;100.00
8075;BME280;4080;42.676;23.372;2023-01-26T06:39:47;95272.78;;;0.67;100.00
8075;BME280;4080;42.676;23.372;2023-01-26T06:42:13;95270.59;;;0.71;100.00
8075;BME280;4080;42.676;23.372;2023-01-26T06:44:40;95265.81;;;0.68;100.00
8075;BME280;4080;42.676;23.372;2023-01-26T06:47:07;95261.00;;;0.65;100.00
8075;BME280;4080;42.676;23.372;2023-01-26T06:49:33;95266.19;;;0.65;100.00
8075;BME280;4080;42.676;23.372;2023-01-26T06:52:04;95279.78;;;0.67;100.00
8075;BME280;4080;42.676;23.372;2023-01-26T06:54:47;95271.38;;;0.71;100.00
8075;BME280;4080;42.676;23.372;2023-01-26T06:57:14;95244.63;;;0.64;100.00
8075;BME280;4080;42.676;23.372;2023-01-26T06:59:40;95261.78;;;0.78;100.00
8075;BME280;4080;42.676;23.372;2023-01-26T07:02:11;95255.00;;;0.77;100.00
8075;BME280;4080;42.676;23.372;2023-01-26T07:04:41;95264.41;;;0.78;100.00
8075;BME280;4080;42.676;23.372;2023-01-26T07:07:09;95260.19;;;0.77;100.00
8075;BME280;4080;42.676;23.372;2023-01-26T07:09:36;95261.78;;;0.78;100.00
8075;BME280;4080;42.676;23.372;2023-01-26T07:12:03;95250.41;;;0.73;100.00
8075;BME280;4080;42.676;23.372;2023-01-26T07:14:30;95234.63;;;0.61;100.00
8075;BME280;4080;42.676;23.372;2023-01-26T07:16:57;95242.63;;;0.73;100.00
8075;BME280;4080;42.676;23.372;2023-01-26T07:19:23;95181.16;;;0.34;100.00
8075;BME280;4080;42.676;23.372;2023-01-26T07:21:50;95241.84;;;0.72;100.00
8075;BME280;4080;42.676;23.372;2023-01-26T07:24:18;95232.03;;;0.74;100.00
8075;BME280;4080;42.676;23.372;2023-01-26T07:26:46;95234.63;;;0.74;100.00
8075;BME280;4080;42.676;23.372;2023-01-26T07:29:12;95231.63;;;0.77;100.00
8075;BME280;4080;42.676;23.372;2023-01-26T07:31:39;95239.63;;;0.82;100.00
8075;BME280;4080;42.676;23.372;2023-01-26T07:34:08;95187.31;;;0.52;100.00
8075;BME280;4080;42.676;23.372;2023-01-26T07:36:35;95229.84;;;0.78;100.00
8075;BME280;4080;42.676;23.372;2023-01-26T07:39:02;95240.22;;;0.78;100.00
8075;BME280;4080;42.676;23.372;2023-01-26T07:41:30;95211.28;;;0.68;100.00
8075;BME280;4080;42.676;23.372;2023-01-26T07:43:57;95230.22;;;0.88;100.00
8075;BME280;4080;42.676;23.372;2023-01-26T07:46:24;95227.63;;;0.88;100.00
8075;BME280;4080;42.676;23.372;2023-01-26T07:48:50;95221.44;;;0.96;100.00
8075;BME280;4080;42.676;23.372;2023-01-26T07:51:17;95221.84;;;0.99;100.00
8075;BME280;4080;42.676;23.372;2023-01-26T07:53:44;95223.63;;;1.05;100.00
8075;BME280;4080;42.676;23.372;2023-01-26T07:56:15;95223.81;;;1.04;100.00
8075;BME280;4080;42.676;23.372;2023-01-26T07:58:48;95214.03;;;0.99;100.00
8075;BME280;4080;42.676;23.372;2023-01-26T08:01:14;95231.00;;;1.02;100.00
8075;BME280;4080;42.676;23.372;2023-01-26T08:03:41;95229.00;;;1.04;100.00
8075;BME280;4080;42.676;23.372;2023-01-26T08:06:10;95174.31;;;0.79;100.00
8075;BME280;4080;42.676;23.372;2023-01-26T08:08:37;95222.19;;;1.09;100.00
8075;BME280;4080;42.676;23.372;2023-01-26T08:11:05;95216.56;;;1.19;100.00
8075;BME280;4080;42.676;23.372;2023-01-26T08:13:33;95204.19;;;1.21;100.00
8075;BME280;4080;42.676;23.372;2023-01-26T08:16:02;95208.38;;;1.29;100.00
8075;BME280;4080;42.676;23.372;2023-01-26T08:18:30;95209.16;;;1.29;100.00
8075;BME280;4080;42.676;23.372;2023-01-26T08:20:57;95202.97;;;1.30;100.00
8075;BME280;4080;42.676;23.372;2023-01-26T08:23:24;95208.75;;;1.32;100.00
8075;BME280;4080;42.676;23.372;2023-01-26T08:25:51;95210.53;;;1.38;100.00
8075;BME280;4080;42.676;23.372;2023-01-26T08:28:18;95206.50;;;1.42;100.00
8075;BME280;4080;42.676;23.372;2023-01-26T08:30:44;95204.75;;;1.36;100.00
8075;BME280;4080;42.676;23.372;2023-01-26T08:33:12;95204.31;;;1.39;100.00
8075;BME280;4080;42.676;23.372;2023-01-26T08:35:39;95200.13;;;1.38;100.00
8075;BME280;4080;42.676;23.372;2023-01-26T08:38:06;95193.91;;;1.46;100.00
8075;BME280;4080;42.676;23.372;2023-01-26T08:40:32;95198.47;;;1.50;100.00
8075;BME280;4080;42.676;23.372;2023-01-26T08:43:00;95167.19;;;1.32;100.00
8075;BME280;4080;42.676;23.372;2023-01-26T08:45:27;95180.88;;;1.52;100.00
8075;BME280;4080;42.676;23.372;2023-01-26T08:47:55;95167.69;;;1.47;100.00
8075;BME280;4080;42.676;23.372;2023-01-26T08:50:23;95185.66;;;1.62;100.00
8075;BME280;4080;42.676;23.372;2023-01-26T08:52:50;95179.06;;;1.60;100.00
8075;BME280;4080;42.676;23.372;2023-01-26T08:55:17;95191.41;;;1.71;100.00
8075;BME280;4080;42.676;23.372;2023-01-26T08:57:43;95197.19;;;1.73;100.00
8075;BME280;4080;42.676;23.372;2023-01-26T09:00:12;95200.59;;;1.73;100.00
8075;BME280;4080;42.676;23.372;2023-01-26T09:02:39;95201.56;;;1.79;100.00
8075;BME280;4080;42.676;23.372;2023-01-26T09:05:07;95189.56;;;1.78;100.00
8075;BME280;4080;42.676;23.372;2023-01-26T09:07:35;95204.94;;;1.79;100.00
8075;BME280;4080;42.676;23.372;2023-01-26T09:10:03;95191.56;;;1.76;100.00
8075;BME280;4080;42.676;23.372;2023-01-26T09:12:30;95188.16;;;1.75;100.00
8075;BME280;4080;42.676;23.372;2023-01-26T09:14:56;95188.75;;;1.77;100.00
8075;BME280;4080;42.676;23.372;2023-01-26T09:17:23;95177.72;;;1.82;100.00
8075;BME280;4080;42.676;23.372;2023-01-26T09:19:50;95187.91;;;1.83;100.00
8075;BME280;4080;42.676;23.372;2023-01-26T09:22:16;95167.16;;;1.77;100.00
8075;BME280;4080;42.676;23.372;2023-01-26T09:24:44;95169.94;;;1.82;100.00
8075;BME280;4080;42.676;23.372;2023-01-26T09:27:11;95176.13;;;1.88;100.00
8075;BME280;4080;42.676;23.372;2023-01-26T09:29:38;95173.50;;;1.88;100.00
8075;BME280;4080;42.676;23.372;2023-01-26T09:32:05;95155.13;;;1.82;100.00
8075;BME280;4080;42.676;23.372;2023-01-26T09:34:32;95162.53;;;1.85;100.00
8075;BME280;4080;42.676;23.372;2023-01-26T09:36:59;95154.31;;;1.82;100.00
8075;BME280;4080;42.676;23.372;2023-01-26T09:39:25;95148.69;;;1.92;100.00
8075;BME280;4080;42.676;23.372;2023-01-26T09:42:04;95159.28;;;1.90;100.00
8075;BME280;4080;42.676;23.372;2023-01-26T09:44:41;95160.31;;;1.89;100.00
8075;BME280;4080;42.676;23.372;2023-01-26T09:47:13;95163.13;;;1.88;100.00
8075;BME280;4080;42.676;23.372;2023-01-26T09:49:47;95163.13;;;1.81;100.00
8075;BME280;4080;42.676;23.372;2023-01-26T09:52:19;95151.72;;;1.82;100.00
8075;BME280;4080;42.676;23.372;2023-01-26T09:54:50;95146.31;;;1.83;100.00
8075;BME280;4080;42.676;23.372;2023-01-26T09:57:23;95125.63;;;1.64;100.00
8075;BME280;4080;42.676;23.372;2023-01-26T09:59:55;95122.78;;;1.72;100.00
8075;BME280;4080;42.676;23.372;2023-01-26T10:02:34;95146.72;;;1.87;100.00
8075;BME280;4080;42.676;23.372;2023-01-26T10:05:07;95140.88;;;1.92;100.00
8075;BME280;4080;42.676;23.372;2023-01-26T10:07:37;95135.66;;;1.92;100.00
8075;BME280;4080;42.676;23.372;2023-01-26T10:10:04;95143.00;;;2.01;100.00
8075;BME280;4080;42.676;23.372;2023-01-26T10:12:35;95121.91;;;1.84;100.00
8075;BME280;4080;42.676;23.372;2023-01-26T10:15:05;95147.28;;;1.89;100.00
8075;BME280;4080;42.676;23.372;2023-01-26T10:17:36;95119.69;;;1.88;100.00
8075;BME280;4080;42.676;23.372;2023-01-26T10:20:06;95136.41;;;1.99;100.00
8075;BME280;4080;42.676;23.372;2023-01-26T10:22:41;95121.59;;;1.99;100.00
8075;BME280;4080;42.676;23.372;2023-01-26T10:25:15;95094.22;;;1.97;100.00
8075;BME280;4080;42.676;23.372;2023-01-26T10:27:43;95105.50;;;2.09;100.00
8075;BME280;4080;42.676;23.372;2023-01-26T10:30:12;95100.47;;;2.14;100.00
8075;BME280;4080;42.676;23.372;2023-01-26T10:32:41;95090.44;;;2.17;100.00
8075;BME280;4080;42.676;23.372;2023-01-26T10:35:14;95096.66;;;2.16;100.00
8075;BME280;4080;42.676;23.372;2023-01-26T10:37:42;95076.25;;;2.13;100.00
8075;BME280;4080;42.676;23.372;2023-01-26T10:40:09;95079.72;;;2.07;100.00
8075;BME280;4080;42.676;23.372;2023-01-26T10:42:37;95048.47;;;2.07;100.00
8075;BME280;4080;42.676;23.372;2023-01-26T10:45:23;95040.53;;;2.02;100.00
8075;BME280;4080;42.676;23.372;2023-01-26T10:48:02;95052.00;;;2.20;100.00
8075;BME280;4080;42.676;23.372;2023-01-26T10:50:29;95036.81;;;2.16;100.00
8075;BME280;4080;42.676;23.372;2023-01-26T10:52:59;95030.41;;;2.12;100.00
8075;BME280;4080;42.676;23.372;2023-01-26T10:55:26;95040.56;;;2.21;100.00
8075;BME280;4080;42.676;23.372;2023-01-26T10:57:53;95027.56;;;2.21;100.00
8075;BME280;4080;42.676;23.372;2023-01-26T11:00:27;95022.06;;;2.29;100.00
8075;BME280;4080;42.676;23.372;2023-01-26T11:02:58;94973.31;;;1.99;100.00
8075;BME280;4080;42.676;23.372;2023-01-26T11:05:27;94993.16;;;2.18;100.00
8075;BME280;4080;42.676;23.372;2023-01-26T11:07:55;95011.00;;;2.33;100.00
8075;BME280;4080;42.676;23.372;2023-01-26T11:10:27;94994.03;;;2.31;100.00
8075;BME280;4080;42.676;23.372;2023-01-26T11:13:21;94993.38;;;2.35;100.00
8075;BME280;4080;42.676;23.372;2023-01-26T11:16:00;94967.50;;;2.22;100.00
8075;BME280;4080;42.676;23.372;2023-01-26T11:18:36;94972.97;;;2.32;100.00
8075;BME280;4080;42.676;23.372;2023-01-26T11:21:10;94951.88;;;2.22;100.00
8075;BME280;4080;42.676;23.372;2023-01-26T11:23:59;94962.66;;;2.26;100.00
8075;BME280;4080;42.676;23.372;2023-01-26T11:29:57;94934.72;;;2.33;100.00
8075;BME280;4080;42.676;23.372;2023-01-26T11:32:38;94940.94;;;2.32;100.00
8075;BME280;4080;42.676;23.372;2023-01-26T11:35:14;94936.63;;;2.26;100.00
8075;BME280;4080;42.676;23.372;2023-01-26T11:37:47;94948.09;;;2.36;100.00
8075;BME280;4080;42.676;23.372;2023-01-26T11:40:24;94938.03;;;2.40;100.00
8075;BME280;4080;42.676;23.372;2023-01-26T11:43:10;94920.97;;;2.44;100.00
8075;BME280;4080;42.676;23.372;2023-01-26T11:45:53;94922.06;;;2.55;100.00
8075;BME280;4080;42.676;23.372;2023-01-26T11:48:33;94915.06;;;2.55;100.00
8075;BME280;4080;42.676;23.372;2023-01-26T11:51:11;94919.81;;;2.58;100.00
8075;BME280;4080;42.676;23.372;2023-01-26T11:53:57;94922.28;;;2.53;100.00
8075;BME280;4080;42.676;23.372;2023-01-26T11:56:38;94927.72;;;2.52;100.00
8075;BME280;4080;42.676;23.372;2023-01-26T11:59:12;94926.78;;;2.46;100.00
8075;BME280;4080;42.676;23.372;2023-01-26T12:01:45;94914.63;;;2.40;100.00
8075;BME280;4080;42.676;23.372;2023-01-26T12:04:17;94917.88;;;2.54;100.00
8075;BME280;4080;42.676;23.372;2023-01-26T12:06:47;94917.06;;;2.53;100.00
8075;BME280;4080;42.676;23.372;2023-01-26T12:09:20;94907.91;;;2.51;100.00
8075;BME280;4080;42.676;23.372;2023-01-26T12:11:53;94903.34;;;2.46;100.00
8075;BME280;4080;42.676;23.372;2023-01-26T12:14:24;94910.16;;;2.47;100.00
8075;BME280;4080;42.676;23.372;2023-01-26T12:17:06;94909.13;;;2.48;100.00
8075;BME280;4080;42.676;23.372;2023-01-26T12:19:44;94876.38;;;2.40;100.00
8075;BME280;4080;42.676;23.372;2023-01-26T12:22:18;94845.97;;;2.04;100.00
8075;BME280;4080;42.676;23.372;2023-01-26T12:24:51;94868.53;;;2.29;100.00
8075;BME280;4080;42.676;23.372;2023-01-26T12:27:24;94861.19;;;2.37;100.00
8075;BME280;4080;42.676;23.372;2023-01-26T12:29:57;94851.56;;;2.38;100.00
8075;BME280;4080;42.676;23.372;2023-01-26T12:32:26;94876.16;;;2.42;100.00
8075;BME280;4080;42.676;23.372;2023-01-26T12:34:56;94859.72;;;2.41;100.00
8075;BME280;4080;42.676;23.372;2023-01-26T12:37:40;94872.75;;;2.41;100.00
8075;BME280;4080;42.676;23.372;2023-01-26T12:40:21;94847.69;;;2.29;100.00
8075;BME280;4080;42.676;23.372;2023-01-26T12:42:58;94854.97;;;2.38;100.00
8075;BME280;4080;42.676;23.372;2023-01-26T12:45:33;94844.22;;;2.35;100.00
8075;BME280;4080;42.676;23.372;2023-01-26T12:48:06;94846.59;;;2.36;100.00
8075;BME280;4080;42.676;23.372;2023-01-26T12:50:40;94849.28;;;2.30;100.00
8075;BME280;4080;42.676;23.372;2023-01-26T12:53:14;94844.13;;;2.41;100.00
8075;BME280;4080;42.676;23.372;2023-01-26T12:55:59;94849.53;;;2.40;100.00
8075;BME280;4080;42.676;23.372;2023-01-26T12:58:35;94845.22;;;2.34;100.00
8075;BME280;4080;42.676;23.372;2023-01-26T13:01:08;94841.03;;;2.33;100.00
8075;BME280;4080;42.676;23.372;2023-01-26T13:03:38;94828.47;;;2.30;100.00
8075;BME280;4080;42.676;23.372;2023-01-26T13:06:23;94831.94;;;2.24;100.00
8075;BME280;4080;42.676;23.372;2023-01-26T13:09:01;94827.41;;;2.19;100.00
8075;BME280;4080;42.676;23.372;2023-01-26T13:11:46;94841.47;;;2.30;100.00
8075;BME280;4080;42.676;23.372;2023-01-26T13:14:29;94842.63;;;2.34;100.00
8075;BME280;4080;42.676;23.372;2023-01-26T13:16:56;94845.97;;;2.23;100.00
8075;BME280;4080;42.676;23.372;2023-01-26T13:19:50;94834.88;;;2.15;100.00
8075;BME280;4080;42.676;23.372;2023-01-26T13:22:39;94838.03;;;2.17;100.00
8075;BME280;4080;42.676;23.372;2023-01-26T13:25:13;94838.88;;;2.30;100.00
8075;BME280;4080;42.676;23.372;2023-01-26T13:27:44;94841.69;;;2.28;100.00
8075;BME280;4080;42.676;23.372;2023-01-26T13:30:38;94831.59;;;2.20;100.00
8075;BME280;4080;42.676;23.372;2023-01-26T13:33:13;94815.09;;;2.26;100.00